WD4CLZ Weather Reports


Display with metric or nautical units.
time (UTC)temp
F
wind
direction
speed
MPH
gust
MPH
rain 1hr
in
rain 24hr
in
rain mn
in
humidity
%
barometer
mb
20210804003342 73 310 0.0 0.0 0.64 1.18 1.18 87 1017.7
20210804001834 73 310 0.0 1.0 0.63 1.15 1.15 87 1018.3
20210804000342 73 309 0.0 5.0 0.60 1.12 1.12 87 1018.4
20210803234834 73 205 0.0 11.0 0.50 1.01 1.01 88 1019.1
20210803233341 75 256 1.0 5.0 0.03 0.54 0.54 86 1017.6
20210803231828 75 178 0.0 0.0 0.10 0.52 0.52 86 1016.1
20210803230340 74 178 0.0 7.0 0.20 0.52 0.52 83 1015.9
20210803224828 75 155 1.0 13.0 0.19 0.51 0.51 83 1015.9
20210803223340 76 163 6.0 14.0 0.19 0.51 0.51 86 1015.6
20210803221847 77 192 9.0 22.0 0.13 0.45 0.45 84 1015.7
20210803220334 83 140 1.0 11.0 0.00 0.32 0.32 85 1014.9
20210803214846 83 116 2.0 9.0 0.00 0.32 0.32 85 1014.9
20210803213334 83 110 1.0 10.0 0.00 0.32 0.32 85 1014.9
20210803211846 83 86 0.0 11.0 0.00 0.32 0.32 86 1014.7
20210803210334 82 114 0.0 0.0 0.00 0.32 0.32 86 1014.9
20210803204845 82 130 0.0 0.0 0.01 0.32 0.32 86 1015.1
20210803203333 82 140 0.0 0.0 0.01 0.44 0.32 86 1015.0
20210803201840 82 136 0.0 0.0 0.02 0.44 0.32 86 1014.9
20210803200332 81 139 0.0 0.0 0.03 0.44 0.32 86 1014.9
20210803194839 81 112 0.0 0.0 0.02 0.43 0.31 86 1015.1
20210803193332 81 130 0.0 0.0 0.02 0.72 0.31 86 1015.3
20210803191839 81 125 0.0 0.0 0.02 0.71 0.30 86 1015.4
20210803190330 81 17 0.0 0.0 0.01 0.70 0.29 86 1015.3
20210803184838 81 17 0.0 0.0 0.02 0.70 0.29 86 1015.5
20210803183346 81 17 0.0 0.0 0.04 0.70 0.29 86 1015.7
20210803181837 81 17 0.0 0.0 0.13 0.69 0.28 86 1015.7
20210803180345 81 17 0.0 0.0 0.28 0.69 0.28 86 1015.8
20210803174837 81 29 0.0 0.0 0.27 0.68 0.27 86 1016.3
20210803173345 81 161 0.0 0.0 0.25 0.99 0.25 86 1016.4
20210803171834 81 161 0.0 6.0 0.16 0.90 0.16 86 1016.5
20210803170329 83 172 2.0 11.0 0.00 0.74 0.00 81 1016.2
20210803164837 83 157 0.0 7.0 0.00 0.74 0.00 80 1016.5
20210803163328 83 180 0.0 10.0 0.00 0.74 0.00 80 1016.2
20210803161836 83 156 2.0 12.0 0.00 0.74 0.00 80 1016.6
20210803160328 83 117 7.0 14.0 0.00 0.74 0.00 79 1016.2
20210803154836 88 173 1.0 3.0 0.00 0.74 0.00 71 1016.1
20210803153343 88 189 2.0 10.0 0.00 0.74 0.00 71 1016.2
20210803151836 88 189 0.0 6.0 0.00 0.74 0.00 74 1016.3
20210803150340 87 188 0.0 5.0 0.00 0.74 0.00 74 1016.4
20210803144833 87 192 3.0 7.0 0.00 0.74 0.00 74 1016.1
20210803143343 86 191 1.0 8.0 0.00 0.74 0.00 75 1016.0
20210803141835 86 190 0.0 6.0 0.00 0.74 0.00 76 1016.0
20210803140345 86 191 0.0 6.0 0.00 0.74 0.00 78 1015.8
20210803134834 85 182 0.0 4.0 0.00 0.74 0.00 79 1015.7
20210803133328 85 172 5.0 10.0 0.00 0.74 0.00 80 1015.8
20210803131839 85 203 3.0 11.0 0.00 0.74 0.00 81 1016.1
20210803130332 85 194 0.0 3.0 0.00 0.74 0.00 83 1016.0
20210803124841 84 192 0.0 3.0 0.00 0.74 0.00 84 1015.7
20210803123334 83 188 0.0 0.0 0.00 0.74 0.00 85 1015.5
20210803121843 82 182 0.0 0.0 0.00 0.74 0.00 86 1015.4
20210803120335 81 167 0.0 0.0 0.00 0.74 0.00 87 1015.4
20210803114828 80 166 0.0 0.0 0.00 0.74 0.00 87 1015.3
20210803113338 80 165 0.0 0.0 0.00 0.74 0.00 87 1015.3
20210803111832 80 166 0.0 0.0 0.00 0.74 0.00 87 1015.2
20210803110342 80 166 0.0 0.0 0.00 0.74 0.00 87 1015.0
20210803104835 80 166 0.0 0.0 0.00 0.74 0.00 87 1014.8
20210803103325 80 166 0.0 0.0 0.00 0.74 0.00 87 1014.8
20210803101836 80 166 0.0 0.0 0.00 0.74 0.00 87 1014.7
20210803100329 80 165 0.0 0.0 0.00 0.74 0.00 87 1014.5
20210803094838 80 165 0.0 0.0 0.00 0.74 0.00 87 1014.2
20210803093331 80 166 0.0 0.0 0.00 0.74 0.00 87 1014.1
20210803091841 80 165 0.0 0.0 0.00 0.74 0.00 87 1014.1
20210803090334 80 166 0.0 0.0 0.00 0.74 0.00 87 1014.0
20210803084843 81 166 0.0 0.0 0.00 0.74 0.00 86 1014.0
20210803083333 81 166 0.0 0.0 0.00 0.74 0.00 86 1014.1
20210803081846 81 166 0.0 0.0 0.00 0.74 0.00 86 1014.2
20210803080334 81 166 0.0 0.0 0.00 0.74 0.00 86 1014.5
20210803074827 81 166 0.0 0.0 0.00 0.74 0.00 86 1014.6
20210803073336 81 165 0.0 0.0 0.00 0.74 0.00 86 1014.7
20210803071829 81 166 0.0 0.0 0.00 0.74 0.00 86 1014.7
20210803070337 81 166 0.0 0.0 0.00 0.74 0.00 86 1014.8
20210803064844 81 165 0.0 0.0 0.00 0.74 0.00 85 1014.7
20210803063337 82 166 0.0 0.0 0.00 0.74 0.00 85 1014.7
20210803061826 82 165 0.0 0.0 0.00 0.74 0.00 85 1014.5
20210803060343 82 166 0.0 0.0 0.00 0.74 0.00 85 1014.8
20210803054831 82 166 0.0 0.0 0.00 0.74 0.00 85 1015.2
20210803053339 82 166 0.0 0.0 0.00 0.74 0.00 85 1015.4
20210803051833 82 165 0.0 0.0 0.00 0.74 0.00 86 1015.6
20210803050341 82 166 0.0 0.0 0.00 0.74 0.00 86 1015.9
20210803044834 82 165 0.0 0.0 0.00 0.74 0.00 86 1016.1
20210803043344 82 166 0.0 0.0 0.00 0.84 0.00 86 1016.5
20210803041837 82 166 0.0 0.0 0.00 0.84 0.00 86 1016.6
20210803040346 82 166 0.0 0.0 0.00 0.84 0.00 86 1016.8
20210803034834 82 166 0.0 0.0 0.00 0.84 0.84 86 1017.0
20210803033327 82 165 0.0 0.0 0.00 0.84 0.84 86 1016.9
20210803031836 81 165 0.0 0.0 0.00 0.84 0.84 86 1017.1
20210803030328 81 166 0.0 0.0 0.00 0.84 0.84 86 1017.3
20210803024838 82 166 0.0 0.0 0.00 0.84 0.84 86 1017.3
20210803023332 82 166 0.0 0.0 0.00 0.84 0.84 86 1017.3
20210803021840 82 166 0.0 0.0 0.00 0.84 0.84 86 1017.3
20210803020329 82 166 0.0 0.0 0.00 0.84 0.84 86 1017.1
20210803014841 82 166 0.0 0.0 0.00 0.84 0.84 86 1016.7
20210803013329 82 166 0.0 0.0 0.00 0.84 0.84 85 1016.3
20210803011841 82 165 0.0 0.0 0.00 0.84 0.84 85 1016.0
20210803010331 82 166 0.0 0.0 0.00 0.84 0.84 85 1016.0
20210803004843 83 165 0.0 0.0 0.00 0.84 0.84 84 1016.0